メインページ
METAR-TAF:

METAR-TAF

空港 :

グアテマラシティ, グアテマラ

ラ・アウロラ国際空港

緯度: 14-35N, 経度: 090-31W, 海抜: 1489m

現時点の気象観測

当レポートは53分前の01:00(UTC)に作成
の風 8kt
気温 21°C
湿度 78%
気圧 1026 hPa
視程10km以上
高度1500ftの千切れ雲あり
高度20000ftの雲は散在している

METAR: MGGT 260100Z 36008KT 9999 BKN015 SCT200 21/17 Q1026 A3030

時間: 19:53 (01:53 UTC)

予報

予報は25日の 12時(UTC)から 26日の 12時(UTC)まで有効
の風 kt
視程10km以上
高度1200ftの雲は散在している
確率 30%
25日の 12時(UTC)から 25日の 14時(UTC)まで
視程: 5000m
高度800ftの千切れ雲あり
25日の 14時(UTC)から 25日の 16時(UTC)まで徐々に
変向風 3kt
高度1800ftの雲は散在している
25日の 20時(UTC)から 26日の 02時(UTC)まで一時的に
視程: 8000m
高度1800ftの雲は散在している, 塔状積雲.
高度2500ftの雲はほとんどない, 積乱雲.
近辺で激しい雷雨, 雨
26日の 01時(UTC)から 26日の 03時(UTC)まで徐々に
の風 kt
高度1600ftの千切れ雲あり
26日の 05時(UTC)から 26日の 07時(UTC)まで徐々に
高度1200ftの千切れ雲あり
確率 30%
26日の 07時(UTC)から 26日の 10時(UTC)まで
視程: 8000m
高度1000ftの千切れ雲あり
霧雨

TAF: MGGT 2512/2612 00000KT 9999 SCT012 TX25/2520Z TN18/2512Z PROB30 2512/2514 5000 BR BKN008 BECMG 2514/2516 VRB03KT SCT018 TEMPO 2520/2602 8000 VCTSRA SCT018TCU FEW025CB BECMG 2601/2603 00000KT BKN016 BECMG 2605/2607 BKN012 PROB30 2607/2610 8000 DZ BKN010

4,000以上の空港の気象観測と天気予報(METAR報とTAF報)

利用可能な観測所は地図上に黄色い丸と赤い丸で示す。

丸の上にカーソルを重ねると観測所名を参照できる。

次にクリックすると気象観測と天気予報を参照できる。

マップの切り替え:黒色「×」印の緑ボタンをクリックして拡大、「-」印の緑ボタンをクリックして縮小、緑色の三角印をクリックして隣りの地図に切り替え


METAR-TAF: